sensor_id;sensor_type;location;lat;lon;timestamp;P1;durP1;ratioP1;P2;durP2;ratioP2
74457;SDS011;62896;51.032;3.712;2024-03-22T00:02:00;28.8;;;17.7;;
74457;SDS011;62896;51.032;3.712;2024-03-22T00:05:20;28.8;;;17.7;;
74457;SDS011;62896;51.032;3.712;2024-03-22T00:08:40;28.8;;;17.7;;
74457;SDS011;62896;51.032;3.712;2024-03-22T00:12:00;28.8;;;17.7;;
74457;SDS011;62896;51.032;3.712;2024-03-22T00:15:20;28.8;;;17.7;;
74457;SDS011;62896;51.032;3.712;2024-03-22T00:18:40;26.9;;;15.2;;
74457;SDS011;62896;51.032;3.712;2024-03-22T00:22:00;26.9;;;15.2;;
74457;SDS011;62896;51.032;3.712;2024-03-22T00:25:20;26.9;;;15.2;;
74457;SDS011;62896;51.032;3.712;2024-03-22T00:28:40;26.9;;;15.2;;
74457;SDS011;62896;51.032;3.712;2024-03-22T00:32:00;26.9;;;15.2;;
74457;SDS011;62896;51.032;3.712;2024-03-22T00:35:20;26.9;;;15.2;;
74457;SDS011;62896;51.032;3.712;2024-03-22T00:38:40;26.9;;;15.2;;
74457;SDS011;62896;51.032;3.712;2024-03-22T00:42:00;26.9;;;15.2;;
74457;SDS011;62896;51.032;3.712;2024-03-22T00:45:20;23.6;;;14.6;;
74457;SDS011;62896;51.032;3.712;2024-03-22T00:48:40;23.6;;;14.6;;
74457;SDS011;62896;51.032;3.712;2024-03-22T00:52:00;23.6;;;14.6;;
74457;SDS011;62896;51.032;3.712;2024-03-22T00:55:20;23.6;;;14.6;;
74457;SDS011;62896;51.032;3.712;2024-03-22T00:58:40;23.6;;;14.6;;
74457;SDS011;62896;51.032;3.712;2024-03-22T01:02:00;23.6;;;14.6;;
74457;SDS011;62896;51.032;3.712;2024-03-22T01:05:20;23.6;;;14.6;;
74457;SDS011;62896;51.032;3.712;2024-03-22T01:08:40;29.8;;;16.4;;
74457;SDS011;62896;51.032;3.712;2024-03-22T01:12:00;29.8;;;16.4;;
74457;SDS011;62896;51.032;3.712;2024-03-22T01:15:20;29.8;;;16.4;;
74457;SDS011;62896;51.032;3.712;2024-03-22T01:18:40;29.8;;;16.4;;
74457;SDS011;62896;51.032;3.712;2024-03-22T01:22:00;29.8;;;16.4;;
74457;SDS011;62896;51.032;3.712;2024-03-22T01:25:20;29.8;;;16.4;;
74457;SDS011;62896;51.032;3.712;2024-03-22T01:28:40;29.8;;;16.4;;
74457;SDS011;62896;51.032;3.712;2024-03-22T01:32:00;29.8;;;16.4;;
74457;SDS011;62896;51.032;3.712;2024-03-22T01:35:20;29.4;;;16.8;;
74457;SDS011;62896;51.032;3.712;2024-03-22T01:38:40;29.4;;;16.8;;
74457;SDS011;62896;51.032;3.712;2024-03-22T01:42:00;29.4;;;16.8;;
74457;SDS011;62896;51.032;3.712;2024-03-22T01:45:20;29.4;;;16.8;;
74457;SDS011;62896;51.032;3.712;2024-03-22T01:48:40;29.4;;;16.8;;
74457;SDS011;62896;51.032;3.712;2024-03-22T01:52:00;29.4;;;16.8;;
74457;SDS011;62896;51.032;3.712;2024-03-22T01:55:20;29.4;;;16.8;;
74457;SDS011;62896;51.032;3.712;2024-03-22T01:58:40;27.9;;;15.5;;
74457;SDS011;62896;51.032;3.712;2024-03-22T02:02:00;27.9;;;15.5;;
74457;SDS011;62896;51.032;3.712;2024-03-22T02:05:20;27.9;;;15.5;;
74457;SDS011;62896;51.032;3.712;2024-03-22T02:08:40;27.9;;;15.5;;
74457;SDS011;62896;51.032;3.712;2024-03-22T02:12:00;27.9;;;15.5;;
74457;SDS011;62896;51.032;3.712;2024-03-22T02:15:20;27.9;;;15.5;;
74457;SDS011;62896;51.032;3.712;2024-03-22T02:18:40;27.9;;;15.5;;
74457;SDS011;62896;51.032;3.712;2024-03-22T02:22:00;27.9;;;15.5;;
74457;SDS011;62896;51.032;3.712;2024-03-22T02:25:20;25.8;;;13.8;;
74457;SDS011;62896;51.032;3.712;2024-03-22T02:28:40;25.8;;;13.8;;
74457;SDS011;62896;51.032;3.712;2024-03-22T02:32:00;25.8;;;13.8;;
74457;SDS011;62896;51.032;3.712;2024-03-22T02:35:20;25.8;;;13.8;;
74457;SDS011;62896;51.032;3.712;2024-03-22T02:38:40;25.8;;;13.8;;
74457;SDS011;62896;51.032;3.712;2024-03-22T02:42:00;25.8;;;13.8;;
74457;SDS011;62896;51.032;3.712;2024-03-22T02:45:20;25.8;;;13.8;;
74457;SDS011;62896;51.032;3.712;2024-03-22T02:48:40;19.5;;;12.1;;
74457;SDS011;62896;51.032;3.712;2024-03-22T02:52:00;19.5;;;12.1;;
74457;SDS011;62896;51.032;3.712;2024-03-22T02:55:20;19.5;;;12.1;;
74457;SDS011;62896;51.032;3.712;2024-03-22T02:58:40;19.5;;;12.1;;
74457;SDS011;62896;51.032;3.712;2024-03-22T03:02:00;19.5;;;12.1;;
74457;SDS011;62896;51.032;3.712;2024-03-22T03:05:20;19.5;;;12.1;;
74457;SDS011;62896;51.032;3.712;2024-03-22T03:08:40;19.5;;;12.1;;
74457;SDS011;62896;51.032;3.712;2024-03-22T03:12:00;19.5;;;12.1;;
74457;SDS011;62896;51.032;3.712;2024-03-22T03:15:20;18.7;;;12.7;;
74457;SDS011;62896;51.032;3.712;2024-03-22T03:18:40;18.7;;;12.7;;
74457;SDS011;62896;51.032;3.712;2024-03-22T03:22:00;18.7;;;12.7;;
74457;SDS011;62896;51.032;3.712;2024-03-22T03:25:20;18.7;;;12.7;;
74457;SDS011;62896;51.032;3.712;2024-03-22T03:28:40;18.7;;;12.7;;
74457;SDS011;62896;51.032;3.712;2024-03-22T03:32:00;18.7;;;12.7;;
74457;SDS011;62896;51.032;3.712;2024-03-22T03:35:20;18.7;;;12.7;;
74457;SDS011;62896;51.032;3.712;2024-03-22T03:38:40;15.9;;;10.4;;
74457;SDS011;62896;51.032;3.712;2024-03-22T03:42:00;15.9;;;10.4;;
74457;SDS011;62896;51.032;3.712;2024-03-22T03:45:20;15.9;;;10.4;;
74457;SDS011;62896;51.032;3.712;2024-03-22T03:48:40;15.9;;;10.4;;
74457;SDS011;62896;51.032;3.712;2024-03-22T03:52:00;15.9;;;10.4;;
74457;SDS011;62896;51.032;3.712;2024-03-22T03:55:20;15.9;;;10.4;;
74457;SDS011;62896;51.032;3.712;2024-03-22T03:58:40;15.9;;;10.4;;
74457;SDS011;62896;51.032;3.712;2024-03-22T04:02:00;15.9;;;10.4;;
74457;SDS011;62896;51.032;3.712;2024-03-22T04:05:20;17.3;;;10.7;;
74457;SDS011;62896;51.032;3.712;2024-03-22T04:08:40;17.3;;;10.7;;
74457;SDS011;62896;51.032;3.712;2024-03-22T04:12:00;17.3;;;10.7;;
74457;SDS011;62896;51.032;3.712;2024-03-22T04:15:20;17.3;;;10.7;;
74457;SDS011;62896;51.032;3.712;2024-03-22T04:18:40;17.3;;;10.7;;
74457;SDS011;62896;51.032;3.712;2024-03-22T04:22:00;17.3;;;10.7;;
74457;SDS011;62896;51.032;3.712;2024-03-22T04:25:20;17.3;;;10.7;;
74457;SDS011;62896;51.032;3.712;2024-03-22T04:28:40;13;;;10;;
74457;SDS011;62896;51.032;3.712;2024-03-22T04:32:00;13;;;10;;
74457;SDS011;62896;51.032;3.712;2024-03-22T04:35:20;13;;;10;;
74457;SDS011;62896;51.032;3.712;2024-03-22T04:38:40;13;;;10;;
74457;SDS011;62896;51.032;3.712;2024-03-22T04:42:00;13;;;10;;
74457;SDS011;62896;51.032;3.712;2024-03-22T04:45:20;13;;;10;;
74457;SDS011;62896;51.032;3.712;2024-03-22T04:48:40;13;;;10;;
74457;SDS011;62896;51.032;3.712;2024-03-22T04:52:00;13;;;10;;
74457;SDS011;62896;51.032;3.712;2024-03-22T04:55:20;16.2;;;10;;
74457;SDS011;62896;51.032;3.712;2024-03-22T04:58:40;16.2;;;10;;
74457;SDS011;62896;51.032;3.712;2024-03-22T05:02:00;16.2;;;10;;
74457;SDS011;62896;51.032;3.712;2024-03-22T05:05:20;16.2;;;10;;
74457;SDS011;62896;51.032;3.712;2024-03-22T05:08:40;16.2;;;10;;
74457;SDS011;62896;51.032;3.712;2024-03-22T05:12:00;16.2;;;10;;
74457;SDS011;62896;51.032;3.712;2024-03-22T05:15:20;16.2;;;10;;
74457;SDS011;62896;51.032;3.712;2024-03-22T05:18:40;14;;;9.7;;
74457;SDS011;62896;51.032;3.712;2024-03-22T05:22:00;14;;;9.7;;
74457;SDS011;62896;51.032;3.712;2024-03-22T05:25:20;14;;;9.7;;
74457;SDS011;62896;51.032;3.712;2024-03-22T05:28:40;14;;;9.7;;
74457;SDS011;62896;51.032;3.712;2024-03-22T05:32:00;14;;;9.7;;
74457;SDS011;62896;51.032;3.712;2024-03-22T05:35:20;14;;;9.7;;
74457;SDS011;62896;51.032;3.712;2024-03-22T05:38:40;14;;;9.7;;
74457;SDS011;62896;51.032;3.712;2024-03-22T05:42:00;14;;;9.7;;
74457;SDS011;62896;51.032;3.712;2024-03-22T05:45:20;13.7;;;8.4;;
74457;SDS011;62896;51.032;3.712;2024-03-22T05:48:40;13.7;;;8.4;;
74457;SDS011;62896;51.032;3.712;2024-03-22T05:52:00;13.7;;;8.4;;
74457;SDS011;62896;51.032;3.712;2024-03-22T05:55:20;13.7;;;8.4;;
74457;SDS011;62896;51.032;3.712;2024-03-22T05:58:40;13.7;;;8.4;;
74457;SDS011;62896;51.032;3.712;2024-03-22T06:02:00;13.7;;;8.4;;
74457;SDS011;62896;51.032;3.712;2024-03-22T06:05:20;13.7;;;8.4;;
74457;SDS011;62896;51.032;3.712;2024-03-22T06:08:40;9.2;;;6.4;;
74457;SDS011;62896;51.032;3.712;2024-03-22T06:12:00;9.2;;;6.4;;
74457;SDS011;62896;51.032;3.712;2024-03-22T06:15:20;9.2;;;6.4;;
74457;SDS011;62896;51.032;3.712;2024-03-22T06:18:40;9.2;;;6.4;;
74457;SDS011;62896;51.032;3.712;2024-03-22T06:22:00;9.2;;;6.4;;
74457;SDS011;62896;51.032;3.712;2024-03-22T06:25:20;9.2;;;6.4;;
74457;SDS011;62896;51.032;3.712;2024-03-22T06:28:40;9.2;;;6.4;;
74457;SDS011;62896;51.032;3.712;2024-03-22T06:32:00;9.2;;;6.4;;
74457;SDS011;62896;51.032;3.712;2024-03-22T06:35:20;9.5;;;5.3;;
74457;SDS011;62896;51.032;3.712;2024-03-22T06:38:40;9.5;;;5.3;;
74457;SDS011;62896;51.032;3.712;2024-03-22T06:42:00;9.5;;;5.3;;
74457;SDS011;62896;51.032;3.712;2024-03-22T06:45:20;9.5;;;5.3;;
74457;SDS011;62896;51.032;3.712;2024-03-22T06:48:40;9.5;;;5.3;;
74457;SDS011;62896;51.032;3.712;2024-03-22T06:52:00;9.5;;;5.3;;
74457;SDS011;62896;51.032;3.712;2024-03-22T06:55:20;9.5;;;5.3;;
74457;SDS011;62896;51.032;3.712;2024-03-22T06:58:40;9.8;;;6.1;;
74457;SDS011;62896;51.032;3.712;2024-03-22T07:02:00;9.8;;;6.1;;
74457;SDS011;62896;51.032;3.712;2024-03-22T07:05:20;9.8;;;6.1;;
74457;SDS011;62896;51.032;3.712;2024-03-22T07:08:40;9.8;;;6.1;;
74457;SDS011;62896;51.032;3.712;2024-03-22T07:12:00;9.8;;;6.1;;
74457;SDS011;62896;51.032;3.712;2024-03-22T07:15:20;9.8;;;6.1;;
74457;SDS011;62896;51.032;3.712;2024-03-22T07:18:40;9.8;;;6.1;;
74457;SDS011;62896;51.032;3.712;2024-03-22T07:22:00;9.8;;;6.1;;
74457;SDS011;62896;51.032;3.712;2024-03-22T07:25:20;7.5;;;5.1;;
74457;SDS011;62896;51.032;3.712;2024-03-22T07:28:40;7.5;;;5.1;;
74457;SDS011;62896;51.032;3.712;2024-03-22T07:32:00;7.5;;;5.1;;
74457;SDS011;62896;51.032;3.712;2024-03-22T07:35:20;7.5;;;5.1;;
74457;SDS011;62896;51.032;3.712;2024-03-22T07:38:40;7.5;;;5.1;;
74457;SDS011;62896;51.032;3.712;2024-03-22T07:42:00;7.5;;;5.1;;
74457;SDS011;62896;51.032;3.712;2024-03-22T07:45:20;7.5;;;5.1;;
74457;SDS011;62896;51.032;3.712;2024-03-22T07:48:40;11.6;;;5.9;;
74457;SDS011;62896;51.032;3.712;2024-03-22T07:52:00;11.6;;;5.9;;
74457;SDS011;62896;51.032;3.712;2024-03-22T07:55:20;11.6;;;5.9;;
74457;SDS011;62896;51.032;3.712;2024-03-22T07:58:40;11.6;;;5.9;;
74457;SDS011;62896;51.032;3.712;2024-03-22T08:02:01;11.6;;;5.9;;
74457;SDS011;62896;51.032;3.712;2024-03-22T08:05:20;11.6;;;5.9;;
74457;SDS011;62896;51.032;3.712;2024-03-22T08:08:40;11.6;;;5.9;;
74457;SDS011;62896;51.032;3.712;2024-03-22T08:12:00;11.6;;;5.9;;
74457;SDS011;62896;51.032;3.712;2024-03-22T08:15:20;9.6;;;5.7;;
74457;SDS011;62896;51.032;3.712;2024-03-22T08:18:40;9.6;;;5.7;;
74457;SDS011;62896;51.032;3.712;2024-03-22T08:22:00;9.6;;;5.7;;
74457;SDS011;62896;51.032;3.712;2024-03-22T08:25:20;9.6;;;5.7;;
74457;SDS011;62896;51.032;3.712;2024-03-22T08:28:40;9.6;;;5.7;;
74457;SDS011;62896;51.032;3.712;2024-03-22T08:32:00;9.6;;;5.7;;
74457;SDS011;62896;51.032;3.712;2024-03-22T08:35:20;9.6;;;5.7;;
74457;SDS011;62896;51.032;3.712;2024-03-22T08:38:40;11.1;;;5.1;;
74457;SDS011;62896;51.032;3.712;2024-03-22T08:42:00;11.1;;;5.1;;
74457;SDS011;62896;51.032;3.712;2024-03-22T08:45:20;11.1;;;5.1;;
74457;SDS011;62896;51.032;3.712;2024-03-22T08:48:40;11.1;;;5.1;;
74457;SDS011;62896;51.032;3.712;2024-03-22T08:52:00;11.1;;;5.1;;
74457;SDS011;62896;51.032;3.712;2024-03-22T08:55:20;11.1;;;5.1;;
74457;SDS011;62896;51.032;3.712;2024-03-22T08:58:40;11.1;;;5.1;;
74457;SDS011;62896;51.032;3.712;2024-03-22T09:02:00;11.1;;;5.1;;
74457;SDS011;62896;51.032;3.712;2024-03-22T09:05:20;10.5;;;4.9;;
74457;SDS011;62896;51.032;3.712;2024-03-22T09:08:40;10.5;;;4.9;;
74457;SDS011;62896;51.032;3.712;2024-03-22T09:12:00;10.5;;;4.9;;
74457;SDS011;62896;51.032;3.712;2024-03-22T09:15:20;10.5;;;4.9;;
74457;SDS011;62896;51.032;3.712;2024-03-22T09:18:40;10.5;;;4.9;;
74457;SDS011;62896;51.032;3.712;2024-03-22T09:22:00;10.5;;;4.9;;
74457;SDS011;62896;51.032;3.712;2024-03-22T09:25:20;10.5;;;4.9;;
74457;SDS011;62896;51.032;3.712;2024-03-22T09:28:40;13.3;;;5.1;;
74457;SDS011;62896;51.032;3.712;2024-03-22T09:32:00;13.3;;;5.1;;
74457;SDS011;62896;51.032;3.712;2024-03-22T09:35:20;13.3;;;5.1;;
74457;SDS011;62896;51.032;3.712;2024-03-22T09:38:40;13.3;;;5.1;;
74457;SDS011;62896;51.032;3.712;2024-03-22T09:42:00;13.3;;;5.1;;
74457;SDS011;62896;51.032;3.712;2024-03-22T09:45:20;13.3;;;5.1;;
74457;SDS011;62896;51.032;3.712;2024-03-22T09:48:40;13.3;;;5.1;;
74457;SDS011;62896;51.032;3.712;2024-03-22T09:52:00;13.3;;;5.1;;
74457;SDS011;62896;51.032;3.712;2024-03-22T09:55:22;14.6;;;5.1;;
74457;SDS011;62896;51.032;3.712;2024-03-22T09:58:40;14.6;;;5.1;;
74457;SDS011;62896;51.032;3.712;2024-03-22T10:02:00;14.6;;;5.1;;
74457;SDS011;62896;51.032;3.712;2024-03-22T10:05:20;14.6;;;5.1;;
74457;SDS011;62896;51.032;3.712;2024-03-22T10:08:40;14.6;;;5.1;;
74457;SDS011;62896;51.032;3.712;2024-03-22T10:12:00;14.6;;;5.1;;
74457;SDS011;62896;51.032;3.712;2024-03-22T10:15:20;14.6;;;5.1;;
74457;SDS011;62896;51.032;3.712;2024-03-22T10:18:40;8.8;;;4.7;;
74457;SDS011;62896;51.032;3.712;2024-03-22T10:22:00;8.8;;;4.7;;
74457;SDS011;62896;51.032;3.712;2024-03-22T10:25:20;8.8;;;4.7;;
74457;SDS011;62896;51.032;3.712;2024-03-22T10:28:44;8.8;;;4.7;;
74457;SDS011;62896;51.032;3.712;2024-03-22T10:32:00;8.8;;;4.7;;
74457;SDS011;62896;51.032;3.712;2024-03-22T10:35:20;8.8;;;4.7;;
74457;SDS011;62896;51.032;3.712;2024-03-22T10:38:40;8.8;;;4.7;;
74457;SDS011;62896;51.032;3.712;2024-03-22T10:42:00;8.8;;;4.7;;
74457;SDS011;62896;51.032;3.712;2024-03-22T10:45:20;11.5;;;3.9;;
74457;SDS011;62896;51.032;3.712;2024-03-22T10:48:40;11.5;;;3.9;;
74457;SDS011;62896;51.032;3.712;2024-03-22T10:52:01;11.5;;;3.9;;
74457;SDS011;62896;51.032;3.712;2024-03-22T10:55:21;11.5;;;3.9;;
74457;SDS011;62896;51.032;3.712;2024-03-22T10:58:40;11.5;;;3.9;;
74457;SDS011;62896;51.032;3.712;2024-03-22T11:02:02;11.5;;;3.9;;
74457;SDS011;62896;51.032;3.712;2024-03-22T11:05:20;11.5;;;3.9;;
74457;SDS011;62896;51.032;3.712;2024-03-22T11:08:40;10;;;4;;
74457;SDS011;62896;51.032;3.712;2024-03-22T11:12:00;10;;;4;;
74457;SDS011;62896;51.032;3.712;2024-03-22T11:15:20;10;;;4;;
74457;SDS011;62896;51.032;3.712;2024-03-22T11:18:40;10;;;4;;
74457;SDS011;62896;51.032;3.712;2024-03-22T11:22:00;10;;;4;;
74457;SDS011;62896;51.032;3.712;2024-03-22T11:25:20;10;;;4;;
74457;SDS011;62896;51.032;3.712;2024-03-22T11:28:41;10;;;4;;
74457;SDS011;62896;51.032;3.712;2024-03-22T11:32:00;10;;;4;;
74457;SDS011;62896;51.032;3.712;2024-03-22T11:35:20;10.7;;;3.8;;
74457;SDS011;62896;51.032;3.712;2024-03-22T11:38:40;10.7;;;3.8;;
74457;SDS011;62896;51.032;3.712;2024-03-22T11:42:00;10.7;;;3.8;;
74457;SDS011;62896;51.032;3.712;2024-03-22T11:45:20;10.7;;;3.8;;
74457;SDS011;62896;51.032;3.712;2024-03-22T11:48:40;10.7;;;3.8;;
74457;SDS011;62896;51.032;3.712;2024-03-22T11:52:00;10.7;;;3.8;;
74457;SDS011;62896;51.032;3.712;2024-03-22T11:55:20;10.7;;;3.8;;
74457;SDS011;62896;51.032;3.712;2024-03-22T11:58:40;12.6;;;4.5;;
74457;SDS011;62896;51.032;3.712;2024-03-22T12:02:00;12.6;;;4.5;;
74457;SDS011;62896;51.032;3.712;2024-03-22T12:05:20;12.6;;;4.5;;
74457;SDS011;62896;51.032;3.712;2024-03-22T12:08:40;12.6;;;4.5;;
74457;SDS011;62896;51.032;3.712;2024-03-22T12:12:00;12.6;;;4.5;;
74457;SDS011;62896;51.032;3.712;2024-03-22T12:15:20;12.6;;;4.5;;
74457;SDS011;62896;51.032;3.712;2024-03-22T12:18:40;12.6;;;4.5;;
74457;SDS011;62896;51.032;3.712;2024-03-22T12:22:00;12.6;;;4.5;;
74457;SDS011;62896;51.032;3.712;2024-03-22T12:25:20;15.6;;;5.6;;
74457;SDS011;62896;51.032;3.712;2024-03-22T12:28:40;15.6;;;5.6;;
74457;SDS011;62896;51.032;3.712;2024-03-22T12:32:01;15.6;;;5.6;;
74457;SDS011;62896;51.032;3.712;2024-03-22T12:35:20;15.6;;;5.6;;
74457;SDS011;62896;51.032;3.712;2024-03-22T12:38:40;15.6;;;5.6;;
74457;SDS011;62896;51.032;3.712;2024-03-22T12:42:00;15.6;;;5.6;;
74457;SDS011;62896;51.032;3.712;2024-03-22T12:45:20;15.6;;;5.6;;
74457;SDS011;62896;51.032;3.712;2024-03-22T12:48:40;19.6;;;10.5;;
74457;SDS011;62896;51.032;3.712;2024-03-22T12:52:00;19.6;;;10.5;;
74457;SDS011;62896;51.032;3.712;2024-03-22T12:55:20;19.6;;;10.5;;
74457;SDS011;62896;51.032;3.712;2024-03-22T12:58:40;19.6;;;10.5;;
74457;SDS011;62896;51.032;3.712;2024-03-22T13:02:00;19.6;;;10.5;;
74457;SDS011;62896;51.032;3.712;2024-03-22T13:05:20;19.6;;;10.5;;
74457;SDS011;62896;51.032;3.712;2024-03-22T13:08:40;19.6;;;10.5;;
74457;SDS011;62896;51.032;3.712;2024-03-22T13:12:00;19.6;;;10.5;;
74457;SDS011;62896;51.032;3.712;2024-03-22T13:15:20;19;;;10.7;;
74457;SDS011;62896;51.032;3.712;2024-03-22T13:18:41;19;;;10.7;;
74457;SDS011;62896;51.032;3.712;2024-03-22T13:22:00;19;;;10.7;;
74457;SDS011;62896;51.032;3.712;2024-03-22T13:25:20;19;;;10.7;;
74457;SDS011;62896;51.032;3.712;2024-03-22T13:28:40;19;;;10.7;;
74457;SDS011;62896;51.032;3.712;2024-03-22T13:32:00;19;;;10.7;;
74457;SDS011;62896;51.032;3.712;2024-03-22T13:35:20;19;;;10.7;;
74457;SDS011;62896;51.032;3.712;2024-03-22T13:38:40;20.8;;;11.6;;
74457;SDS011;62896;51.032;3.712;2024-03-22T13:42:00;20.8;;;11.6;;
74457;SDS011;62896;51.032;3.712;2024-03-22T13:45:20;20.8;;;11.6;;
74457;SDS011;62896;51.032;3.712;2024-03-22T13:48:41;20.8;;;11.6;;
74457;SDS011;62896;51.032;3.712;2024-03-22T13:52:00;20.8;;;11.6;;
74457;SDS011;62896;51.032;3.712;2024-03-22T13:55:20;20.8;;;11.6;;
74457;SDS011;62896;51.032;3.712;2024-03-22T13:58:40;20.8;;;11.6;;
74457;SDS011;62896;51.032;3.712;2024-03-22T14:02:00;20.8;;;11.6;;
74457;SDS011;62896;51.032;3.712;2024-03-22T14:05:20;13.8;;;8.8;;
74457;SDS011;62896;51.032;3.712;2024-03-22T14:08:40;13.8;;;8.8;;
74457;SDS011;62896;51.032;3.712;2024-03-22T14:12:00;13.8;;;8.8;;
74457;SDS011;62896;51.032;3.712;2024-03-22T14:15:20;13.8;;;8.8;;
74457;SDS011;62896;51.032;3.712;2024-03-22T14:18:40;13.8;;;8.8;;
74457;SDS011;62896;51.032;3.712;2024-03-22T14:22:00;13.8;;;8.8;;
74457;SDS011;62896;51.032;3.712;2024-03-22T14:25:20;13.8;;;8.8;;
74457;SDS011;62896;51.032;3.712;2024-03-22T14:28:40;10.1;;;6.5;;
74457;SDS011;62896;51.032;3.712;2024-03-22T14:32:00;10.1;;;6.5;;
74457;SDS011;62896;51.032;3.712;2024-03-22T14:35:20;10.1;;;6.5;;
74457;SDS011;62896;51.032;3.712;2024-03-22T14:38:40;10.1;;;6.5;;
74457;SDS011;62896;51.032;3.712;2024-03-22T14:42:00;10.1;;;6.5;;
74457;SDS011;62896;51.032;3.712;2024-03-22T14:45:20;10.1;;;6.5;;
74457;SDS011;62896;51.032;3.712;2024-03-22T14:48:40;10.1;;;6.5;;
74457;SDS011;62896;51.032;3.712;2024-03-22T14:52:00;10.1;;;6.5;;
74457;SDS011;62896;51.032;3.712;2024-03-22T14:55:20;8.1;;;5.4;;
74457;SDS011;62896;51.032;3.712;2024-03-22T14:58:40;8.1;;;5.4;;
74457;SDS011;62896;51.032;3.712;2024-03-22T15:02:00;8.1;;;5.4;;
74457;SDS011;62896;51.032;3.712;2024-03-22T15:05:20;8.1;;;5.4;;
74457;SDS011;62896;51.032;3.712;2024-03-22T15:08:40;8.1;;;5.4;;
74457;SDS011;62896;51.032;3.712;2024-03-22T15:12:00;8.1;;;5.4;;
74457;SDS011;62896;51.032;3.712;2024-03-22T15:15:20;8.1;;;5.4;;
74457;SDS011;62896;51.032;3.712;2024-03-22T15:18:40;5.4;;;4.6;;
74457;SDS011;62896;51.032;3.712;2024-03-22T15:22:00;5.4;;;4.6;;
74457;SDS011;62896;51.032;3.712;2024-03-22T15:25:20;5.4;;;4.6;;
74457;SDS011;62896;51.032;3.712;2024-03-22T15:28:40;5.4;;;4.6;;
74457;SDS011;62896;51.032;3.712;2024-03-22T15:32:00;5.4;;;4.6;;
74457;SDS011;62896;51.032;3.712;2024-03-22T15:35:20;5.4;;;4.6;;
74457;SDS011;62896;51.032;3.712;2024-03-22T15:38:40;5.4;;;4.6;;
74457;SDS011;62896;51.032;3.712;2024-03-22T15:42:00;5.4;;;4.6;;
74457;SDS011;62896;51.032;3.712;2024-03-22T15:45:20;7.8;;;5.4;;
74457;SDS011;62896;51.032;3.712;2024-03-22T15:48:40;7.8;;;5.4;;
74457;SDS011;62896;51.032;3.712;2024-03-22T15:52:00;7.8;;;5.4;;
74457;SDS011;62896;51.032;3.712;2024-03-22T15:55:20;7.8;;;5.4;;
74457;SDS011;62896;51.032;3.712;2024-03-22T15:58:40;7.8;;;5.4;;
74457;SDS011;62896;51.032;3.712;2024-03-22T16:02:00;7.8;;;5.4;;
74457;SDS011;62896;51.032;3.712;2024-03-22T16:05:20;7.8;;;5.4;;
74457;SDS011;62896;51.032;3.712;2024-03-22T16:08:40;7.8;;;5.9;;
74457;SDS011;62896;51.032;3.712;2024-03-22T16:12:00;7.8;;;5.9;;
74457;SDS011;62896;51.032;3.712;2024-03-22T16:15:20;7.8;;;5.9;;
74457;SDS011;62896;51.032;3.712;2024-03-22T16:18:40;7.8;;;5.9;;
74457;SDS011;62896;51.032;3.712;2024-03-22T16:22:00;7.8;;;5.9;;
74457;SDS011;62896;51.032;3.712;2024-03-22T16:25:20;7.8;;;5.9;;
74457;SDS011;62896;51.032;3.712;2024-03-22T16:28:40;7.8;;;5.9;;
74457;SDS011;62896;51.032;3.712;2024-03-22T16:32:00;7.8;;;5.9;;
74457;SDS011;62896;51.032;3.712;2024-03-22T16:35:20;9.3;;;7.1;;
74457;SDS011;62896;51.032;3.712;2024-03-22T16:38:40;9.3;;;7.1;;
74457;SDS011;62896;51.032;3.712;2024-03-22T16:42:00;9.3;;;7.1;;
74457;SDS011;62896;51.032;3.712;2024-03-22T16:45:20;9.3;;;7.1;;
74457;SDS011;62896;51.032;3.712;2024-03-22T16:48:40;9.3;;;7.1;;
74457;SDS011;62896;51.032;3.712;2024-03-22T16:52:00;9.3;;;7.1;;
74457;SDS011;62896;51.032;3.712;2024-03-22T16:55:20;9.3;;;7.1;;
74457;SDS011;62896;51.032;3.712;2024-03-22T16:58:40;7.9;;;5.8;;
74457;SDS011;62896;51.032;3.712;2024-03-22T17:02:00;7.9;;;5.8;;
74457;SDS011;62896;51.032;3.712;2024-03-22T17:05:20;7.9;;;5.8;;
74457;SDS011;62896;51.032;3.712;2024-03-22T17:08:40;7.9;;;5.8;;
74457;SDS011;62896;51.032;3.712;2024-03-22T17:12:00;7.9;;;5.8;;
74457;SDS011;62896;51.032;3.712;2024-03-22T17:15:20;7.9;;;5.8;;
74457;SDS011;62896;51.032;3.712;2024-03-22T17:18:40;7.9;;;5.8;;
74457;SDS011;62896;51.032;3.712;2024-03-22T17:22:00;7.9;;;5.8;;
74457;SDS011;62896;51.032;3.712;2024-03-22T17:25:20;8.5;;;7.1;;
74457;SDS011;62896;51.032;3.712;2024-03-22T17:28:40;8.5;;;7.1;;
74457;SDS011;62896;51.032;3.712;2024-03-22T17:32:00;8.5;;;7.1;;
74457;SDS011;62896;51.032;3.712;2024-03-22T17:35:20;8.5;;;7.1;;
74457;SDS011;62896;51.032;3.712;2024-03-22T17:38:40;8.5;;;7.1;;
74457;SDS011;62896;51.032;3.712;2024-03-22T17:42:00;8.5;;;7.1;;
74457;SDS011;62896;51.032;3.712;2024-03-22T17:45:20;8.5;;;7.1;;
74457;SDS011;62896;51.032;3.712;2024-03-22T17:48:40;5.6;;;3.8;;
74457;SDS011;62896;51.032;3.712;2024-03-22T17:52:00;5.6;;;3.8;;
74457;SDS011;62896;51.032;3.712;2024-03-22T17:55:20;5.6;;;3.8;;
74457;SDS011;62896;51.032;3.712;2024-03-22T17:58:40;5.6;;;3.8;;
74457;SDS011;62896;51.032;3.712;2024-03-22T18:02:00;5.6;;;3.8;;
74457;SDS011;62896;51.032;3.712;2024-03-22T18:05:20;5.6;;;3.8;;
74457;SDS011;62896;51.032;3.712;2024-03-22T18:08:40;5.6;;;3.8;;
74457;SDS011;62896;51.032;3.712;2024-03-22T18:12:00;5.6;;;3.8;;
74457;SDS011;62896;51.032;3.712;2024-03-22T18:15:22;11.2;;;4.9;;
74457;SDS011;62896;51.032;3.712;2024-03-22T18:18:40;11.2;;;4.9;;
74457;SDS011;62896;51.032;3.712;2024-03-22T18:22:00;11.2;;;4.9;;
74457;SDS011;62896;51.032;3.712;2024-03-22T18:25:20;11.2;;;4.9;;
74457;SDS011;62896;51.032;3.712;2024-03-22T18:28:40;11.2;;;4.9;;
74457;SDS011;62896;51.032;3.712;2024-03-22T18:32:00;11.2;;;4.9;;
74457;SDS011;62896;51.032;3.712;2024-03-22T18:35:20;11.2;;;4.9;;
74457;SDS011;62896;51.032;3.712;2024-03-22T18:38:40;10.1;;;5.5;;
74457;SDS011;62896;51.032;3.712;2024-03-22T18:42:00;10.1;;;5.5;;
74457;SDS011;62896;51.032;3.712;2024-03-22T18:45:20;10.1;;;5.5;;
74457;SDS011;62896;51.032;3.712;2024-03-22T18:48:40;10.1;;;5.5;;
74457;SDS011;62896;51.032;3.712;2024-03-22T18:52:00;10.1;;;5.5;;
74457;SDS011;62896;51.032;3.712;2024-03-22T18:55:20;10.1;;;5.5;;
74457;SDS011;62896;51.032;3.712;2024-03-22T18:58:40;10.1;;;5.5;;
74457;SDS011;62896;51.032;3.712;2024-03-22T19:02:00;10.1;;;5.5;;
74457;SDS011;62896;51.032;3.712;2024-03-22T19:05:20;12.3;;;7.1;;
74457;SDS011;62896;51.032;3.712;2024-03-22T19:08:40;12.3;;;7.1;;
74457;SDS011;62896;51.032;3.712;2024-03-22T19:12:00;12.3;;;7.1;;
74457;SDS011;62896;51.032;3.712;2024-03-22T19:15:20;12.3;;;7.1;;
74457;SDS011;62896;51.032;3.712;2024-03-22T19:18:40;12.3;;;7.1;;
74457;SDS011;62896;51.032;3.712;2024-03-22T19:22:00;12.3;;;7.1;;
74457;SDS011;62896;51.032;3.712;2024-03-22T19:25:20;12.3;;;7.1;;
74457;SDS011;62896;51.032;3.712;2024-03-22T19:28:40;10.1;;;7.5;;
74457;SDS011;62896;51.032;3.712;2024-03-22T19:32:00;10.1;;;7.5;;
74457;SDS011;62896;51.032;3.712;2024-03-22T19:35:20;10.1;;;7.5;;
74457;SDS011;62896;51.032;3.712;2024-03-22T19:38:40;10.1;;;7.5;;
74457;SDS011;62896;51.032;3.712;2024-03-22T19:42:00;10.1;;;7.5;;
74457;SDS011;62896;51.032;3.712;2024-03-22T19:45:20;10.1;;;7.5;;
74457;SDS011;62896;51.032;3.712;2024-03-22T19:48:40;10.1;;;7.5;;
74457;SDS011;62896;51.032;3.712;2024-03-22T19:52:00;10.1;;;7.5;;
74457;SDS011;62896;51.032;3.712;2024-03-22T19:55:20;11.1;;;7.2;;
74457;SDS011;62896;51.032;3.712;2024-03-22T19:58:40;11.1;;;7.2;;
74457;SDS011;62896;51.032;3.712;2024-03-22T20:02:00;11.1;;;7.2;;
74457;SDS011;62896;51.032;3.712;2024-03-22T20:05:20;11.1;;;7.2;;
74457;SDS011;62896;51.032;3.712;2024-03-22T20:08:40;11.1;;;7.2;;
74457;SDS011;62896;51.032;3.712;2024-03-22T20:12:00;11.1;;;7.2;;
74457;SDS011;62896;51.032;3.712;2024-03-22T20:15:20;11.1;;;7.2;;
74457;SDS011;62896;51.032;3.712;2024-03-22T20:18:40;13.4;;;9.5;;
74457;SDS011;62896;51.032;3.712;2024-03-22T20:22:00;13.4;;;9.5;;
74457;SDS011;62896;51.032;3.712;2024-03-22T20:25:20;13.4;;;9.5;;
74457;SDS011;62896;51.032;3.712;2024-03-22T20:28:40;13.4;;;9.5;;